Almeria — A8WA7 — position and weather

sailwx.info

Track history (hours):
 
Tides and Currents Weather Stations Pressure Air Temp Water Temp Dewpoint Dewpoint Depression Visibility Wind Speed Wind Dir Waves Ship Positions

Almeria

Last reported at 2017-Oct-15 23:52 UTC. Time now 2017-Oct-18 17:01 UTC.
Position N 37°53' E 008°58'.

Length 190 m; draft 11.8 m.

Type: Ship. MMSI: 636014704.

Date/timePositionNaut miles runAvg speedWind from/ knotsBaromVisibWave heightAir tempDewpointWater temp
2017-Oct-15 23:52N 37°53' E 008°58'611.2
2017-Oct-15 23:22N 37°52' E 009°05'411.6
2017-Oct-15 23:00N 37°51' E 009°11'911.9
2017-Oct-15 22:15N 37°49' E 009°22'2412.0
2017-Oct-15 20:16N 37°44' E 009°51'312.0
2017-Oct-15 20:00N 37°43' E 009°55'811.8
2017-Oct-15 19:19N 37°41' E 010°05'411.7
2017-Oct-15 19:00N 37°40' E 010°09'611.5
2017-Oct-15 18:29N 37°39' E 010°17'711.3
2017-Oct-15 17:52N 37°38' E 010°25'711.5
2017-Oct-15 17:16N 37°36' E 010°34'511.9
2017-Oct-15 16:49N 37°35' E 010°40'12211.7
2017-Oct-15 06:23N 36°50' E 013°02'411.7
2017-Oct-15 06:00N 36°49' E 013°08'611.7
2017-Oct-15 05:30N 36°48' E 013°15'611.7
2017-Oct-15 05:00N 36°46' E 013°22'611.5
2017-Oct-15 04:30N 36°44' E 013°29'611.5
2017-Oct-15 03:58N 36°42' E 013°36'611.6
2017-Oct-15 03:29N 36°40' E 013°43'611.6
2017-Oct-15 03:00N 36°39' E 013°49'611.5
2017-Oct-15 02:30N 36°37' E 013°56'611.2
2017-Oct-15 02:00N 36°35' E 014°03'611.2
2017-Oct-15 01:30N 36°33' E 014°09'611.2
2017-Oct-15 01:00N 36°32' E 014°16'611.1
2017-Oct-15 00:30N 36°30' E 014°22'611.1
2017-Oct-15 00:00N 36°28' E 014°29'611.1
2017-Oct-14 23:30N 36°26' E 014°36'611.2
2017-Oct-14 23:01N 36°25' E 014°42'811.2
2017-Oct-14 22:18N 36°22' E 014°51'311.0
2017-Oct-14 21:59N 36°21' E 014°56'510.9
2017-Oct-14 21:29N 36°20' E 015°02'611.0
2017-Oct-14 20:56N 36°20' E 015°10'44410.8
2017-Oct-13 03:43N 37°44' E 024°16'412.3
2017-Oct-13 03:24N 37°46' E 024°19'712.3
2017-Oct-13 02:48N 37°50' E 024°27'512.2
2017-Oct-13 02:25N 37°54' E 024°32'14312.2
2017-Oct-12 14:38N 40°00' E 025°58'312.1
2017-Oct-12 14:25N 40°01' E 026°01'14810.8
2017-Oct-12 00:38N 41°01' E 028°60'32611.2
2017-Oct-10 19:38N 46°17' E 030°53'111.5
2017-Oct-10 19:30N 46°18' E 030°52'611.4
2017-Oct-10 19:00N 46°24' E 030°51'4 7.2
2017-Oct-10 18:30N 46°27' E 030°52'0 0.2
2017-Oct-10 18:00N 46°27' E 030°52'0 0.0
2017-Oct-10 17:12N 46°27' E 030°52'0 0.0
2017-Oct-10 17:00N 46°27' E 030°52'0 0.0
2017-Oct-10 16:18N 46°27' E 030°52'0 0.0
2017-Oct-10 16:00N 46°27' E 030°52'0 0.0
2017-Oct-10 15:30N 46°27' E 030°52'0 0.0
2017-Oct-10 15:00N 46°27' E 030°52'0 0.0
2017-Oct-10 13:57N 46°27' E 030°52'0 0.0
2017-Oct-10 13:27N 46°27' E 030°52'0 0.0
2017-Oct-10 13:00N 46°27' E 030°52'0 0.2
2017-Oct-10 12:30N 46°27' E 030°52'3 6.3
2017-Oct-10 12:00N 46°29' E 030°48'2 3.9
2017-Oct-10 11:30N 46°29' E 030°45'0 0.3
2017-Oct-10 10:59N 46°29' E 030°45'0 0.0
2017-Oct-10 10:29N 46°29' E 030°45'0 0.0
2017-Oct-10 09:59N 46°29' E 030°45'0 0.0
2017-Oct-10 09:26N 46°29' E 030°45'0 0.0
2017-Oct-10 08:59N 46°29' E 030°45'0 0.0
2017-Oct-10 08:26N 46°29' E 030°45'0 0.0
2017-Oct-10 07:53N 46°29' E 030°45'0 0.0
2017-Oct-10 07:29N 46°29' E 030°45'0 0.0
2017-Oct-10 06:59N 46°29' E 030°45'0 0.0
2017-Oct-10 06:26N 46°29' E 030°45'0 0.0
2017-Oct-10 05:59N 46°29' E 030°45'0 0.0
2017-Oct-10 05:29N 46°29' E 030°45'0 0.0
2017-Oct-10 04:56N 46°29' E 030°45'0 0.0
2017-Oct-10 04:29N 46°29' E 030°45'0 0.0
2017-Oct-10 03:53N 46°29' E 030°45'0 0.0
2017-Oct-10 03:29N 46°29' E 030°45'0 0.0
2017-Oct-10 02:59N 46°29' E 030°45'0 0.0
2017-Oct-10 02:29N 46°29' E 030°45'0 0.0
2017-Oct-10 01:59N 46°29' E 030°45'0 0.0
2017-Oct-10 01:23N 46°29' E 030°45'0 0.0
2017-Oct-10 00:59N 46°29' E 030°45'0 0.0
2017-Oct-10 00:20N 46°29' E 030°45'0 0.0
2017-Oct-09 23:59N 46°29' E 030°45'0 0.0
2017-Oct-09 23:26N 46°29' E 030°45'0 0.0
2017-Oct-09 22:56N 46°29' E 030°45'0 0.0
2017-Oct-09 22:29N 46°29' E 030°45'0 0.0
2017-Oct-09 21:59N 46°29' E 030°45'0 0.0
2017-Oct-09 21:29N 46°29' E 030°45'0 0.0
2017-Oct-09 20:59N 46°29' E 030°45'0 0.0
2017-Oct-09 20:29N 46°29' E 030°45'0 0.0
2017-Oct-09 19:59N 46°29' E 030°45'0 0.0
2017-Oct-09 19:29N 46°29' E 030°45'0 0.0
2017-Oct-09 18:59N 46°29' E 030°45'0 0.0
2017-Oct-09 18:29N 46°29' E 030°45'0 0.0
2017-Oct-09 17:50N 46°29' E 030°45'0 0.0
2017-Oct-09 17:26N 46°29' E 030°45'0 0.0
2017-Oct-09 16:53N 46°29' E 030°45'0 0.0
2017-Oct-09 15:35N 46°29' E 030°45'0 0.0
2017-Oct-09 15:29N 46°29' E 030°45'0 0.0
2017-Oct-09 14:56N 46°29' E 030°45'0 0.0
2017-Oct-09 14:23N 46°29' E 030°45'0 0.0
2017-Oct-09 13:50N 46°29' E 030°45'0 0.0
2017-Oct-09 13:26N 46°29' E 030°45'0 0.0
2017-Oct-09 12:56N 46°29' E 030°45'0 0.0
2017-Oct-09 11:44N 46°29' E 030°45'0 0.0
2017-Oct-09 11:23N 46°29' E 030°45'0 0.0
2017-Oct-09 10:56N 46°29' E 030°45'0 0.0
2017-Oct-09 10:29N 46°29' E 030°45'0 0.0
2017-Oct-09 09:53N 46°29' E 030°45'0 0.0
2017-Oct-09 09:29N 46°29' E 030°45'0 0.0
2017-Oct-09 08:50N 46°29' E 030°45'0 0.0
2017-Oct-09 08:26N 46°29' E 030°45'0 0.0
2017-Oct-09 07:47N 46°29' E 030°45'0 0.0
2017-Oct-09 07:23N 46°29' E 030°45'0 0.0
2017-Oct-09 06:59N 46°29' E 030°45'0 0.0
2017-Oct-09 06:26N 46°29' E 030°45'0 0.0
2017-Oct-09 05:56N 46°29' E 030°45'0 0.0
2017-Oct-09 05:20N 46°29' E 030°45'0 0.0
2017-Oct-09 04:59N 46°29' E 030°45'0 0.0
2017-Oct-09 04:29N 46°29' E 030°45'0 0.0
2017-Oct-09 03:53N 46°29' E 030°45'0 0.0
2017-Oct-09 03:29N 46°29' E 030°45'0 0.0
2017-Oct-09 02:59N 46°29' E 030°45'0 0.0
2017-Oct-09 02:29N 46°29' E 030°45'0 0.0
2017-Oct-09 01:35N 46°29' E 030°45'0 0.0
2017-Oct-09 01:26N 46°29' E 030°45'0 0.0
2017-Oct-09 00:50N 46°29' E 030°45'0 0.0
2017-Oct-09 00:29N 46°29' E 030°45'0 0.0
2017-Oct-08 23:56N 46°29' E 030°45'0 0.0
2017-Oct-08 23:26N 46°29' E 030°45'0 0.0
2017-Oct-08 22:50N 46°29' E 030°45'0 0.0
2017-Oct-08 22:23N 46°29' E 030°45'0 0.0
2017-Oct-08 21:56N 46°29' E 030°45'0 0.0
2017-Oct-08 21:26N 46°29' E 030°45'0 0.0
2017-Oct-08 20:59N 46°29' E 030°45'0 0.0
2017-Oct-08 20:26N 46°29' E 030°45'0 0.0
2017-Oct-08 19:59N 46°29' E 030°45'0 0.0
2017-Oct-08 19:23N 46°29' E 030°45'0 0.0
2017-Oct-08 18:53N 46°29' E 030°45'0 0.0
2017-Oct-08 18:29N 46°29' E 030°45'0 0.0
2017-Oct-08 17:56N 46°29' E 030°45'0 0.0
2017-Oct-08 17:29N 46°29' E 030°45'0 0.0
2017-Oct-08 16:41N 46°29' E 030°45'0 0.0
2017-Oct-08 16:29N 46°29' E 030°45'0 0.0
2017-Oct-08 15:59N 46°29' E 030°45'0 0.0
2017-Oct-08 15:29N 46°29' E 030°45'0 0.0
2017-Oct-08 14:38N 46°29' E 030°45'0 0.0
2017-Oct-08 14:11N 46°29' E 030°45'0 0.0
2017-Oct-08 13:59N 46°29' E 030°45'0 0.0
2017-Oct-08 13:23N 46°29' E 030°45'0 0.0
2017-Oct-08 12:56N 46°29' E 030°45'0 0.0
2017-Oct-08 12:23N 46°29' E 030°45'0 0.0
2017-Oct-08 11:56N 46°29' E 030°45'0 0.0
2017-Oct-08 11:26N 46°29' E 030°45'0 0.0
2017-Oct-08 10:56N 46°29' E 030°45'0 0.0
2017-Oct-08 10:26N 46°29' E 030°45'0 0.0
2017-Oct-08 09:59N 46°29' E 030°45'0 0.0
2017-Oct-08 09:29N 46°29' E 030°45'0 0.0
2017-Oct-08 08:53N 46°29' E 030°45'0 0.0
2017-Oct-08 08:29N 46°29' E 030°45'0 0.0
2017-Oct-08 07:53N 46°29' E 030°45'0 0.0
2017-Oct-08 07:26N 46°29' E 030°45'0 0.0
2017-Oct-08 06:47N 46°29' E 030°45'0 0.0
2017-Oct-08 06:29N 46°29' E 030°45'0 0.0
2017-Oct-08 05:56N 46°29' E 030°45'0 0.0
2017-Oct-08 05:23N 46°29' E 030°45'0 0.0
2017-Oct-08 04:59N 46°29' E 030°45'0 0.0
2017-Oct-08 04:26N 46°29' E 030°45'0 0.0
2017-Oct-08 03:41N 46°29' E 030°45'0 0.0
2017-Oct-08 03:29N 46°29' E 030°45'0 0.0
2017-Oct-08 02:56N 46°29' E 030°45'0 0.0
2017-Oct-08 02:14N 46°29' E 030°45'0 0.0
2017-Oct-08 01:59N 46°29' E 030°45'0 0.0
2017-Oct-08 01:29N 46°29' E 030°45'0 0.0
2017-Oct-08 00:47N 46°29' E 030°45'0 0.0
2017-Oct-08 00:23N 46°29' E 030°45'0 0.0
2017-Oct-07 23:59N 46°29' E 030°45'0 0.0
2017-Oct-07 23:20N 46°29' E 030°45'0 0.0
2017-Oct-07 22:59N 46°29' E 030°45'0 0.0
2017-Oct-07 22:26N 46°29' E 030°45'0 0.0
2017-Oct-07 21:50N 46°29' E 030°45'0 0.0
2017-Oct-07 21:29N 46°29' E 030°45'0 0.0
2017-Oct-07 20:23N 46°29' E 030°45'0 0.0
2017-Oct-07 19:59N 46°29' E 030°45'0 0.0
2017-Oct-07 19:29N 46°29' E 030°45'0 0.0
2017-Oct-07 18:59N 46°29' E 030°45'0 0.0
2017-Oct-07 18:26N 46°29' E 030°45'0 0.0
2017-Oct-07 17:56N 46°29' E 030°45'0 0.0
2017-Oct-07 17:29N 46°29' E 030°45'0 0.0
2017-Oct-07 16:59N 46°29' E 030°45'0 0.0
2017-Oct-07 16:26N 46°29' E 030°45'0 0.0
2017-Oct-07 15:59N 46°29' E 030°45'0 0.0
2017-Oct-07 15:26N 46°29' E 030°45'0 0.0
2017-Oct-07 14:23N 46°29' E 030°45'0 0.0
2017-Oct-07 13:53N 46°29' E 030°45'0 0.0
2017-Oct-07 13:29N 46°29' E 030°45'0 0.0
2017-Oct-07 12:59N 46°29' E 030°45'0 0.0
2017-Oct-07 12:02N 46°29' E 030°45'0 0.0
2017-Oct-07 11:50N 46°29' E 030°45'0 0.0
2017-Oct-07 11:20N 46°29' E 030°45'0 0.0
2017-Oct-07 10:47N 46°29' E 030°45'0 0.0
2017-Oct-07 10:29N 46°29' E 030°45'0 0.0
2017-Oct-07 09:59N 46°29' E 030°45'0 0.0
2017-Oct-07 09:26N 46°29' E 030°45'0 0.0
2017-Oct-07 08:50N 46°29' E 030°45'0 0.0
2017-Oct-07 08:26N 46°29' E 030°45'0 0.0
2017-Oct-07 07:59N 46°29' E 030°45'0 0.0
2017-Oct-07 07:29N 46°29' E 030°45'0 0.0
2017-Oct-07 06:59N 46°29' E 030°45'0 0.0
2017-Oct-07 06:29N 46°29' E 030°45'0 0.0
2017-Oct-07 05:59N 46°29' E 030°45'0 0.0
2017-Oct-07 05:29N 46°29' E 030°45'0 0.0
2017-Oct-07 04:53N 46°29' E 030°45'0 0.0
2017-Oct-07 04:29N 46°29' E 030°45'0 0.0
2017-Oct-07 03:59N 46°29' E 030°45'0 0.0
2017-Oct-07 03:17N 46°29' E 030°45'0 0.0
2017-Oct-07 02:53N 46°29' E 030°45'0 0.0
2017-Oct-07 02:20N 46°29' E 030°45'0 0.0
2017-Oct-07 01:50N 46°29' E 030°45'0 0.0
2017-Oct-07 01:23N 46°29' E 030°45'0 0.0
2017-Oct-07 00:56N 46°29' E 030°45'0 0.0
2017-Oct-07 00:23N 46°29' E 030°45'0 0.0
2017-Oct-06 23:56N 46°29' E 030°45'0 0.0
2017-Oct-06 23:26N 46°29' E 030°45'0 0.0
2017-Oct-06 22:56N 46°29' E 030°45'0 0.0
2017-Oct-06 22:29N 46°29' E 030°45'0 0.0
2017-Oct-06 21:59N 46°29' E 030°45'0 0.0
2017-Oct-06 21:29N 46°29' E 030°45'0 0.0
2017-Oct-06 20:56N 46°29' E 030°45'0 0.0
2017-Oct-06 20:29N 46°29' E 030°45'0 0.0
2017-Oct-06 19:59N 46°29' E 030°45'0 0.0
2017-Oct-06 19:29N 46°29' E 030°45'0 0.0
2017-Oct-06 18:59N 46°29' E 030°45'0 0.0
2017-Oct-06 18:29N 46°29' E 030°45'0 0.0
2017-Oct-06 17:44N 46°29' E 030°45'0 0.0
2017-Oct-06 17:20N 46°29' E 030°45'0 0.0
2017-Oct-06 16:59N 46°29' E 030°45'0 0.0
2017-Oct-06 16:26N 46°29' E 030°45'0 0.0
2017-Oct-06 15:59N 46°29' E 030°45'0 0.0
2017-Oct-06 15:26N 46°29' E 030°45'0 0.0
2017-Oct-06 14:56N 46°29' E 030°45'0 0.0
2017-Oct-06 14:29N 46°29' E 030°45'0 0.0
2017-Oct-06 13:59N 46°29' E 030°45'0 0.0
2017-Oct-06 13:29N 46°29' E 030°45'0 0.0
2017-Oct-06 12:56N 46°29' E 030°45'0 0.0
2017-Oct-06 12:26N 46°29' E 030°45'0 0.0
2017-Oct-06 11:59N 46°29' E 030°45'0 0.0
2017-Oct-06 11:29N 46°29' E 030°45'0 0.0
2017-Oct-06 10:56N 46°29' E 030°45'0 0.0
2017-Oct-06 10:29N 46°29' E 030°45'0 0.0
2017-Oct-06 09:59N 46°29' E 030°45'0 0.0
2017-Oct-06 09:29N 46°29' E 030°45'0 0.0
2017-Oct-06 08:59N 46°29' E 030°45'0 0.0
2017-Oct-06 08:29N 46°29' E 030°45'0 0.0
2017-Oct-06 07:47N 46°29' E 030°45'0 0.0
2017-Oct-06 07:26N 46°29' E 030°45'0 0.0
2017-Oct-06 06:59N 46°29' E 030°45'0 0.0
2017-Oct-06 06:23N 46°29' E 030°45'0 0.0
2017-Oct-06 05:59N 46°29' E 030°45'0 0.0
2017-Oct-06 05:14N 46°29' E 030°45'0 0.0
2017-Oct-06 04:53N 46°29' E 030°45'0 0.0
2017-Oct-06 04:29N 46°29' E 030°45'0 0.0
2017-Oct-06 03:56N 46°29' E 030°45'0 0.0
2017-Oct-06 03:29N 46°29' E 030°45'0 0.0
2017-Oct-06 02:59N 46°29' E 030°45'0 0.0
2017-Oct-06 02:20N 46°29' E 030°45'0 0.0
2017-Oct-06 01:59N 46°29' E 030°45'0 0.0
2017-Oct-06 01:26N 46°29' E 030°45'0 0.0
2017-Oct-06 00:47N 46°29' E 030°45'0 0.0
2017-Oct-06 00:29N 46°29' E 030°45'0 0.0
2017-Oct-05 23:59N 46°29' E 030°45'  
Track history (hours):
 
Tides and Currents Weather Stations Pressure Air Temp Water Temp Dewpoint Dewpoint Depression Visibility Wind Speed Wind Dir Waves Ship Positions

Almeria

Last reported at 2017-Oct-15 23:52 UTC. Time now 2017-Oct-18 17:01 UTC.
Position N 37°53' E 008°58'.

Length 190 m; draft 11.8 m.

Type: Ship. MMSI: 636014704.

Date/timePositionNaut miles runAvg speedWind from/ knotsBaromVisibWave heightAir tempDewpointWater temp
2017-Oct-15 23:52N 37°53' E 008°58'611.2
2017-Oct-15 23:22N 37°52' E 009°05'411.6
2017-Oct-15 23:00N 37°51' E 009°11'911.9
2017-Oct-15 22:15N 37°49' E 009°22'2412.0
2017-Oct-15 20:16N 37°44' E 009°51'312.0
2017-Oct-15 20:00N 37°43' E 009°55'811.8
2017-Oct-15 19:19N 37°41' E 010°05'411.7
2017-Oct-15 19:00N 37°40' E 010°09'611.5
2017-Oct-15 18:29N 37°39' E 010°17'711.3
2017-Oct-15 17:52N 37°38' E 010°25'711.5
2017-Oct-15 17:16N 37°36' E 010°34'511.9
2017-Oct-15 16:49N 37°35' E 010°40'12211.7
2017-Oct-15 06:23N 36°50' E 013°02'411.7
2017-Oct-15 06:00N 36°49' E 013°08'611.7
2017-Oct-15 05:30N 36°48' E 013°15'611.7
2017-Oct-15 05:00N 36°46' E 013°22'611.5
2017-Oct-15 04:30N 36°44' E 013°29'611.5
2017-Oct-15 03:58N 36°42' E 013°36'611.6
2017-Oct-15 03:29N 36°40' E 013°43'611.6
2017-Oct-15 03:00N 36°39' E 013°49'611.5
2017-Oct-15 02:30N 36°37' E 013°56'611.2
2017-Oct-15 02:00N 36°35' E 014°03'611.2
2017-Oct-15 01:30N 36°33' E 014°09'611.2
2017-Oct-15 01:00N 36°32' E 014°16'611.1
2017-Oct-15 00:30N 36°30' E 014°22'611.1
2017-Oct-15 00:00N 36°28' E 014°29'611.1
2017-Oct-14 23:30N 36°26' E 014°36'611.2
2017-Oct-14 23:01N 36°25' E 014°42'811.2
2017-Oct-14 22:18N 36°22' E 014°51'311.0
2017-Oct-14 21:59N 36°21' E 014°56'510.9
2017-Oct-14 21:29N 36°20' E 015°02'611.0
2017-Oct-14 20:56N 36°20' E 015°10'44410.8
2017-Oct-13 03:43N 37°44' E 024°16'412.3
2017-Oct-13 03:24N 37°46' E 024°19'712.3
2017-Oct-13 02:48N 37°50' E 024°27'512.2
2017-Oct-13 02:25N 37°54' E 024°32'14312.2
2017-Oct-12 14:38N 40°00' E 025°58'312.1
2017-Oct-12 14:25N 40°01' E 026°01'14810.8
2017-Oct-12 00:38N 41°01' E 028°60'32611.2
2017-Oct-10 19:38N 46°17' E 030°53'111.5
2017-Oct-10 19:30N 46°18' E 030°52'611.4
2017-Oct-10 19:00N 46°24' E 030°51'4 7.2
2017-Oct-10 18:30N 46°27' E 030°52'0 0.2
2017-Oct-10 18:00N 46°27' E 030°52'0 0.0
2017-Oct-10 17:12N 46°27' E 030°52'0 0.0
2017-Oct-10 17:00N 46°27' E 030°52'0 0.0
2017-Oct-10 16:18N 46°27' E 030°52'0 0.0
2017-Oct-10 16:00N 46°27' E 030°52'0 0.0
2017-Oct-10 15:30N 46°27' E 030°52'0 0.0
2017-Oct-10 15:00N 46°27' E 030°52'0 0.0
2017-Oct-10 13:57N 46°27' E 030°52'0 0.0
2017-Oct-10 13:27N 46°27' E 030°52'0 0.0
2017-Oct-10 13:00N 46°27' E 030°52'0 0.2
2017-Oct-10 12:30N 46°27' E 030°52'3 6.3
2017-Oct-10 12:00N 46°29' E 030°48'2 3.9
2017-Oct-10 11:30N 46°29' E 030°45'0 0.3
2017-Oct-10 10:59N 46°29' E 030°45'0 0.0
2017-Oct-10 10:29N 46°29' E 030°45'0 0.0
2017-Oct-10 09:59N 46°29' E 030°45'0 0.0
2017-Oct-10 09:26N 46°29' E 030°45'0 0.0
2017-Oct-10 08:59N 46°29' E 030°45'0 0.0
2017-Oct-10 08:26N 46°29' E 030°45'0 0.0
2017-Oct-10 07:53N 46°29' E 030°45'0 0.0
2017-Oct-10 07:29N 46°29' E 030°45'0 0.0
2017-Oct-10 06:59N 46°29' E 030°45'0 0.0
2017-Oct-10 06:26N 46°29' E 030°45'0 0.0
2017-Oct-10 05:59N 46°29' E 030°45'0 0.0
2017-Oct-10 05:29N 46°29' E 030°45'0 0.0
2017-Oct-10 04:56N 46°29' E 030°45'0 0.0
2017-Oct-10 04:29N 46°29' E 030°45'0 0.0
2017-Oct-10 03:53N 46°29' E 030°45'0 0.0
2017-Oct-10 03:29N 46°29' E 030°45'0 0.0
2017-Oct-10 02:59N 46°29' E 030°45'0 0.0
2017-Oct-10 02:29N 46°29' E 030°45'0 0.0
2017-Oct-10 01:59N 46°29' E 030°45'0 0.0
2017-Oct-10 01:23N 46°29' E 030°45'0 0.0
2017-Oct-10 00:59N 46°29' E 030°45'0 0.0
2017-Oct-10 00:20N 46°29' E 030°45'0 0.0
2017-Oct-09 23:59N 46°29' E 030°45'0 0.0
2017-Oct-09 23:26N 46°29' E 030°45'0 0.0
2017-Oct-09 22:56N 46°29' E 030°45'0 0.0
2017-Oct-09 22:29N 46°29' E 030°45'0 0.0
2017-Oct-09 21:59N 46°29' E 030°45'0 0.0
2017-Oct-09 21:29N 46°29' E 030°45'0 0.0
2017-Oct-09 20:59N 46°29' E 030°45'0 0.0
2017-Oct-09 20:29N 46°29' E 030°45'0 0.0
2017-Oct-09 19:59N 46°29' E 030°45'0 0.0
2017-Oct-09 19:29N 46°29' E 030°45'0 0.0
2017-Oct-09 18:59N 46°29' E 030°45'0 0.0
2017-Oct-09 18:29N 46°29' E 030°45'0 0.0
2017-Oct-09 17:50N 46°29' E 030°45'0 0.0
2017-Oct-09 17:26N 46°29' E 030°45'0 0.0
2017-Oct-09 16:53N 46°29' E 030°45'0 0.0
2017-Oct-09 15:35N 46°29' E 030°45'0 0.0
2017-Oct-09 15:29N 46°29' E 030°45'0 0.0
2017-Oct-09 14:56N 46°29' E 030°45'0 0.0
2017-Oct-09 14:23N 46°29' E 030°45'0 0.0
2017-Oct-09 13:50N 46°29' E 030°45'0 0.0
2017-Oct-09 13:26N 46°29' E 030°45'0 0.0
2017-Oct-09 12:56N 46°29' E 030°45'0 0.0
2017-Oct-09 11:44N 46°29' E 030°45'0 0.0
2017-Oct-09 11:23N 46°29' E 030°45'0 0.0
2017-Oct-09 10:56N 46°29' E 030°45'0 0.0
2017-Oct-09 10:29N 46°29' E 030°45'0 0.0
2017-Oct-09 09:53N 46°29' E 030°45'0 0.0
2017-Oct-09 09:29N 46°29' E 030°45'0 0.0
2017-Oct-09 08:50N 46°29' E 030°45'0 0.0
2017-Oct-09 08:26N 46°29' E 030°45'0 0.0
2017-Oct-09 07:47N 46°29' E 030°45'0 0.0
2017-Oct-09 07:23N 46°29' E 030°45'0 0.0
2017-Oct-09 06:59N 46°29' E 030°45'0 0.0
2017-Oct-09 06:26N 46°29' E 030°45'0 0.0
2017-Oct-09 05:56N 46°29' E 030°45'0 0.0
2017-Oct-09 05:20N 46°29' E 030°45'0 0.0
2017-Oct-09 04:59N 46°29' E 030°45'0 0.0
2017-Oct-09 04:29N 46°29' E 030°45'0 0.0
2017-Oct-09 03:53N 46°29' E 030°45'0 0.0
2017-Oct-09 03:29N 46°29' E 030°45'0 0.0
2017-Oct-09 02:59N 46°29' E 030°45'0 0.0
2017-Oct-09 02:29N 46°29' E 030°45'0 0.0
2017-Oct-09 01:35N 46°29' E 030°45'0 0.0
2017-Oct-09 01:26N 46°29' E 030°45'0 0.0
2017-Oct-09 00:50N 46°29' E 030°45'0 0.0
2017-Oct-09 00:29N 46°29' E 030°45'0 0.0
2017-Oct-08 23:56N 46°29' E 030°45'0 0.0
2017-Oct-08 23:26N 46°29' E 030°45'0 0.0
2017-Oct-08 22:50N 46°29' E 030°45'0 0.0
2017-Oct-08 22:23N 46°29' E 030°45'0 0.0
2017-Oct-08 21:56N 46°29' E 030°45'0 0.0
2017-Oct-08 21:26N 46°29' E 030°45'0 0.0
2017-Oct-08 20:59N 46°29' E 030°45'0 0.0
2017-Oct-08 20:26N 46°29' E 030°45'0 0.0
2017-Oct-08 19:59N 46°29' E 030°45'0 0.0
2017-Oct-08 19:23N 46°29' E 030°45'0 0.0
2017-Oct-08 18:53N 46°29' E 030°45'0 0.0
2017-Oct-08 18:29N 46°29' E 030°45'0 0.0
2017-Oct-08 17:56N 46°29' E 030°45'0 0.0
2017-Oct-08 17:29N 46°29' E 030°45'0 0.0
2017-Oct-08 16:41N 46°29' E 030°45'0 0.0
2017-Oct-08 16:29N 46°29' E 030°45'0 0.0
2017-Oct-08 15:59N 46°29' E 030°45'0 0.0
2017-Oct-08 15:29N 46°29' E 030°45'0 0.0
2017-Oct-08 14:38N 46°29' E 030°45'0 0.0
2017-Oct-08 14:11N 46°29' E 030°45'0 0.0
2017-Oct-08 13:59N 46°29' E 030°45'0 0.0
2017-Oct-08 13:23N 46°29' E 030°45'0 0.0
2017-Oct-08 12:56N 46°29' E 030°45'0 0.0
2017-Oct-08 12:23N 46°29' E 030°45'0 0.0
2017-Oct-08 11:56N 46°29' E 030°45'0 0.0
2017-Oct-08 11:26N 46°29' E 030°45'0 0.0
2017-Oct-08 10:56N 46°29' E 030°45'0 0.0
2017-Oct-08 10:26N 46°29' E 030°45'0 0.0
2017-Oct-08 09:59N 46°29' E 030°45'0 0.0
2017-Oct-08 09:29N 46°29' E 030°45'0 0.0
2017-Oct-08 08:53N 46°29' E 030°45'0 0.0
2017-Oct-08 08:29N 46°29' E 030°45'0 0.0
2017-Oct-08 07:53N 46°29' E 030°45'0 0.0
2017-Oct-08 07:26N 46°29' E 030°45'0 0.0
2017-Oct-08 06:47N 46°29' E 030°45'0 0.0
2017-Oct-08 06:29N 46°29' E 030°45'0 0.0
2017-Oct-08 05:56N 46°29' E 030°45'0 0.0
2017-Oct-08 05:23N 46°29' E 030°45'0 0.0
2017-Oct-08 04:59N 46°29' E 030°45'0 0.0
2017-Oct-08 04:26N 46°29' E 030°45'0 0.0
2017-Oct-08 03:41N 46°29' E 030°45'0 0.0
2017-Oct-08 03:29N 46°29' E 030°45'0 0.0
2017-Oct-08 02:56N 46°29' E 030°45'0 0.0
2017-Oct-08 02:14N 46°29' E 030°45'0 0.0
2017-Oct-08 01:59N 46°29' E 030°45'0 0.0
2017-Oct-08 01:29N 46°29' E 030°45'0 0.0
2017-Oct-08 00:47N 46°29' E 030°45'0 0.0
2017-Oct-08 00:23N 46°29' E 030°45'0 0.0
2017-Oct-07 23:59N 46°29' E 030°45'0 0.0
2017-Oct-07 23:20N 46°29' E 030°45'0 0.0
2017-Oct-07 22:59N 46°29' E 030°45'0 0.0
2017-Oct-07 22:26N 46°29' E 030°45'0 0.0
2017-Oct-07 21:50N 46°29' E 030°45'0 0.0
2017-Oct-07 21:29N 46°29' E 030°45'0 0.0
2017-Oct-07 20:23N 46°29' E 030°45'0 0.0
2017-Oct-07 19:59N 46°29' E 030°45'0 0.0
2017-Oct-07 19:29N 46°29' E 030°45'0 0.0
2017-Oct-07 18:59N 46°29' E 030°45'0 0.0
2017-Oct-07 18:26N 46°29' E 030°45'0 0.0
2017-Oct-07 17:56N 46°29' E 030°45'0 0.0
2017-Oct-07 17:29N 46°29' E 030°45'0 0.0
2017-Oct-07 16:59N 46°29' E 030°45'0 0.0
2017-Oct-07 16:26N 46°29' E 030°45'0 0.0
2017-Oct-07 15:59N 46°29' E 030°45'0 0.0
2017-Oct-07 15:26N 46°29' E 030°45'0 0.0
2017-Oct-07 14:23N 46°29' E 030°45'0 0.0
2017-Oct-07 13:53N 46°29' E 030°45'0 0.0
2017-Oct-07 13:29N 46°29' E 030°45'0 0.0
2017-Oct-07 12:59N 46°29' E 030°45'0 0.0
2017-Oct-07 12:02N 46°29' E 030°45'0 0.0
2017-Oct-07 11:50N 46°29' E 030°45'0 0.0
2017-Oct-07 11:20N 46°29' E 030°45'0 0.0
2017-Oct-07 10:47N 46°29' E 030°45'0 0.0
2017-Oct-07 10:29N 46°29' E 030°45'0 0.0
2017-Oct-07 09:59N 46°29' E 030°45'0 0.0
2017-Oct-07 09:26N 46°29' E 030°45'0 0.0
2017-Oct-07 08:50N 46°29' E 030°45'0 0.0
2017-Oct-07 08:26N 46°29' E 030°45'0 0.0
2017-Oct-07 07:59N 46°29' E 030°45'0 0.0
2017-Oct-07 07:29N 46°29' E 030°45'0 0.0
2017-Oct-07 06:59N 46°29' E 030°45'0 0.0
2017-Oct-07 06:29N 46°29' E 030°45'0 0.0
2017-Oct-07 05:59N 46°29' E 030°45'0 0.0
2017-Oct-07 05:29N 46°29' E 030°45'0 0.0
2017-Oct-07 04:53N 46°29' E 030°45'0 0.0
2017-Oct-07 04:29N 46°29' E 030°45'0 0.0
2017-Oct-07 03:59N 46°29' E 030°45'0 0.0
2017-Oct-07 03:17N 46°29' E 030°45'0 0.0
2017-Oct-07 02:53N 46°29' E 030°45'0 0.0
2017-Oct-07 02:20N 46°29' E 030°45'0 0.0
2017-Oct-07 01:50N 46°29' E 030°45'0 0.0
2017-Oct-07 01:23N 46°29' E 030°45'0 0.0
2017-Oct-07 00:56N 46°29' E 030°45'0 0.0
2017-Oct-07 00:23N 46°29' E 030°45'0 0.0
2017-Oct-06 23:56N 46°29' E 030°45'0 0.0
2017-Oct-06 23:26N 46°29' E 030°45'0 0.0
2017-Oct-06 22:56N 46°29' E 030°45'0 0.0
2017-Oct-06 22:29N 46°29' E 030°45'0 0.0
2017-Oct-06 21:59N 46°29' E 030°45'0 0.0
2017-Oct-06 21:29N 46°29' E 030°45'0 0.0
2017-Oct-06 20:56N 46°29' E 030°45'0 0.0
2017-Oct-06 20:29N 46°29' E 030°45'0 0.0
2017-Oct-06 19:59N 46°29' E 030°45'0 0.0
2017-Oct-06 19:29N 46°29' E 030°45'0 0.0
2017-Oct-06 18:59N 46°29' E 030°45'0 0.0
2017-Oct-06 18:29N 46°29' E 030°45'0 0.0
2017-Oct-06 17:44N 46°29' E 030°45'0 0.0
2017-Oct-06 17:20N 46°29' E 030°45'0 0.0
2017-Oct-06 16:59N 46°29' E 030°45'0 0.0
2017-Oct-06 16:26N 46°29' E 030°45'0 0.0
2017-Oct-06 15:59N 46°29' E 030°45'0 0.0
2017-Oct-06 15:26N 46°29' E 030°45'0 0.0
2017-Oct-06 14:56N 46°29' E 030°45'0 0.0
2017-Oct-06 14:29N 46°29' E 030°45'0 0.0
2017-Oct-06 13:59N 46°29' E 030°45'0 0.0
2017-Oct-06 13:29N 46°29' E 030°45'0 0.0
2017-Oct-06 12:56N 46°29' E 030°45'0 0.0
2017-Oct-06 12:26N 46°29' E 030°45'0 0.0
2017-Oct-06 11:59N 46°29' E 030°45'0 0.0
2017-Oct-06 11:29N 46°29' E 030°45'0 0.0
2017-Oct-06 10:56N 46°29' E 030°45'0 0.0
2017-Oct-06 10:29N 46°29' E 030°45'0 0.0
2017-Oct-06 09:59N 46°29' E 030°45'0 0.0
2017-Oct-06 09:29N 46°29' E 030°45'0 0.0
2017-Oct-06 08:59N 46°29' E 030°45'0 0.0
2017-Oct-06 08:29N 46°29' E 030°45'0 0.0
2017-Oct-06 07:47N 46°29' E 030°45'0 0.0
2017-Oct-06 07:26N 46°29' E 030°45'0 0.0
2017-Oct-06 06:59N 46°29' E 030°45'0 0.0
2017-Oct-06 06:23N 46°29' E 030°45'0 0.0
2017-Oct-06 05:59N 46°29' E 030°45'0 0.0
2017-Oct-06 05:14N 46°29' E 030°45'0 0.0
2017-Oct-06 04:53N 46°29' E 030°45'0 0.0
2017-Oct-06 04:29N 46°29' E 030°45'0 0.0
2017-Oct-06 03:56N 46°29' E 030°45'0 0.0
2017-Oct-06 03:29N 46°29' E 030°45'0 0.0
2017-Oct-06 02:59N 46°29' E 030°45'0 0.0
2017-Oct-06 02:20N 46°29' E 030°45'0 0.0
2017-Oct-06 01:59N 46°29' E 030°45'0 0.0
2017-Oct-06 01:26N 46°29' E 030°45'0 0.0
2017-Oct-06 00:47N 46°29' E 030°45'0 0.0
2017-Oct-06 00:29N 46°29' E 030°45'0 0.0
2017-Oct-05 23:59N 46°29' E 030°45'  

Dump ship's entire track history